createdAt,value
2023-02-19T00:00:32.088Z,65.61
2023-02-19T00:02:58.566Z,65.86
2023-02-19T00:05:24.927Z,66.37
2023-02-19T00:07:51.302Z,66.77
2023-02-19T00:10:17.688Z,66.98
2023-02-19T00:12:44.126Z,67.16
2023-02-19T00:15:10.477Z,67.88
2023-02-19T00:17:36.876Z,67.93
2023-02-19T00:20:03.310Z,67.94
2023-02-19T00:22:29.653Z,67.44
2023-02-19T00:24:56.033Z,67.15
2023-02-19T00:27:22.412Z,68.29
2023-02-19T00:29:48.779Z,68.67
2023-02-19T00:32:15.198Z,68.71
2023-02-19T00:34:41.604Z,68.90
2023-02-19T00:37:07.952Z,70.22
2023-02-19T00:39:34.327Z,70.95
2023-02-19T00:42:00.677Z,70.96
2023-02-19T00:44:27.076Z,70.14
2023-02-19T00:46:53.501Z,70.28
2023-02-19T00:49:19.889Z,69.48
2023-02-19T00:51:46.255Z,69.24
2023-02-19T00:54:12.618Z,69.79
2023-02-19T00:56:39.087Z,69.53
2023-02-19T00:59:05.458Z,69.50
2023-02-19T01:01:31.973Z,70.22
2023-02-19T01:03:58.387Z,70.17
2023-02-19T01:06:24.810Z,70.75
2023-02-19T01:08:51.194Z,71.59
2023-02-19T01:11:17.586Z,71.50
2023-02-19T01:13:43.975Z,71.10
2023-02-19T01:16:10.345Z,70.68
2023-02-19T01:18:36.772Z,70.50
2023-02-19T01:21:03.130Z,70.46
2023-02-19T01:23:29.486Z,70.30
2023-02-19T01:25:55.885Z,69.97
2023-02-19T01:28:22.231Z,70.03
2023-02-19T01:30:48.626Z,70.11
2023-02-19T01:33:14.978Z,69.36
2023-02-19T01:35:41.348Z,69.68
2023-02-19T01:38:07.813Z,69.72
2023-02-19T01:40:34.187Z,70.18
2023-02-19T01:43:00.636Z,69.90
2023-02-19T01:45:27.010Z,70.49
2023-02-19T01:47:53.392Z,69.77
2023-02-19T01:50:19.756Z,69.05
2023-02-19T01:52:46.136Z,69.36
2023-02-19T01:55:12.501Z,69.58
2023-02-19T01:57:38.896Z,69.43
2023-02-19T02:00:05.266Z,69.80
2023-02-19T02:02:31.634Z,70.67
2023-02-19T02:04:57.996Z,70.26
2023-02-19T02:07:24.389Z,70.18
2023-02-19T02:09:50.772Z,69.89
2023-02-19T02:12:17.149Z,70.06
2023-02-19T02:14:43.504Z,69.85
2023-02-19T02:17:09.958Z,70.04
2023-02-19T02:19:36.329Z,69.47
2023-02-19T02:22:02.693Z,68.85
2023-02-19T02:24:29.061Z,68.94
2023-02-19T02:26:55.428Z,68.98
2023-02-19T02:29:21.789Z,68.76
2023-02-19T02:31:48.324Z,69.38
2023-02-19T02:34:14.737Z,68.52
2023-02-19T02:36:41.145Z,68.93
2023-02-19T02:39:07.596Z,68.97
2023-02-19T02:41:33.996Z,68.47
2023-02-19T02:44:00.351Z,68.25
2023-02-19T02:46:26.725Z,67.99
2023-02-19T02:48:53.101Z,67.90
2023-02-19T02:51:19.509Z,67.93
2023-02-19T02:53:45.881Z,68.08
2023-02-19T02:56:12.267Z,67.92
2023-02-19T02:58:38.640Z,67.92
2023-02-19T03:01:05.080Z,68.37
2023-02-19T03:03:31.460Z,68.71
2023-02-19T03:05:57.815Z,68.71
2023-02-19T03:08:24.177Z,68.32
2023-02-19T03:10:50.911Z,68.64
2023-02-19T03:13:17.290Z,68.49
2023-02-19T03:15:43.669Z,68.68
2023-02-19T03:18:10.038Z,67.91
2023-02-19T03:20:36.411Z,67.57
2023-02-19T03:23:02.793Z,67.36
2023-02-19T03:25:29.157Z,67.70
2023-02-19T03:27:55.538Z,68.56
2023-02-19T03:30:21.950Z,69.23
2023-02-19T03:32:48.328Z,70.33
2023-02-19T03:35:14.717Z,70.58
2023-02-19T03:37:41.144Z,71.49
2023-02-19T03:40:07.522Z,72.25
2023-02-19T03:42:33.982Z,72.21
2023-02-19T03:45:00.376Z,71.66
2023-02-19T03:47:26.760Z,71.58
2023-02-19T03:49:53.133Z,71.04
2023-02-19T03:52:19.534Z,71.50
2023-02-19T03:54:45.897Z,70.96
2023-02-19T03:57:12.260Z,71.33
2023-02-19T03:59:38.627Z,70.54
2023-02-19T04:02:05.013Z,70.90
2023-02-19T04:04:31.410Z,70.47
2023-02-19T04:06:57.834Z,69.76
2023-02-19T04:09:24.196Z,69.23
2023-02-19T04:11:50.561Z,68.56
2023-02-19T04:14:16.943Z,68.79
2023-02-19T04:16:43.346Z,68.87
2023-02-19T04:19:09.820Z,68.91
2023-02-19T04:21:36.193Z,69.60
2023-02-19T04:24:02.630Z,69.79
2023-02-19T04:26:29.021Z,69.57
2023-02-19T04:28:55.508Z,69.36
2023-02-19T04:31:21.924Z,68.80
2023-02-19T04:33:48.330Z,68.21
2023-02-19T04:36:14.717Z,68.41
2023-02-19T04:38:41.117Z,68.46
2023-02-19T04:41:07.654Z,67.90
2023-02-19T04:43:34.096Z,68.48
2023-02-19T04:46:00.505Z,68.37
2023-02-19T04:48:26.886Z,68.76
2023-02-19T04:50:53.269Z,69.46
2023-02-19T04:53:19.630Z,70.21
2023-02-19T04:55:46.088Z,70.89
2023-02-19T04:58:12.538Z,70.02
2023-02-19T05:00:39.937Z,69.65
2023-02-19T05:03:06.296Z,68.98
2023-02-19T05:05:32.649Z,69.17
2023-02-19T05:07:59.058Z,70.29
2023-02-19T05:10:28.385Z,70.00
2023-02-19T05:12:56.831Z,70.95
2023-02-19T05:15:24.172Z,70.90
2023-02-19T05:17:50.566Z,69.73
2023-02-19T05:20:16.922Z,70.60
2023-02-19T05:22:43.311Z,70.45
2023-02-19T05:25:09.736Z,70.74
2023-02-19T05:27:36.127Z,72.84
2023-02-19T05:30:02.592Z,72.86
2023-02-19T05:32:29.030Z,73.48
2023-02-19T05:34:55.384Z,74.13
2023-02-19T05:37:21.763Z,73.79
2023-02-19T05:39:48.179Z,73.70
2023-02-19T05:42:14.556Z,73.42
2023-02-19T05:44:40.932Z,73.11
2023-02-19T05:47:07.304Z,73.44
2023-02-19T05:49:33.714Z,73.36
2023-02-19T05:52:00.210Z,72.54
2023-02-19T05:54:26.707Z,71.87
2023-02-19T05:56:53.117Z,71.90
2023-02-19T05:59:19.476Z,71.98
2023-02-19T06:01:45.840Z,71.10
2023-02-19T06:04:12.251Z,71.20
2023-02-19T06:06:38.704Z,71.20
2023-02-19T06:09:05.086Z,70.77
2023-02-19T06:11:31.499Z,69.87
2023-02-19T06:13:57.921Z,69.84
2023-02-19T06:16:24.391Z,70.21
2023-02-19T06:18:50.818Z,70.23
2023-02-19T06:21:17.261Z,69.41
2023-02-19T06:23:43.645Z,68.82
2023-02-19T06:26:10.008Z,68.63
2023-02-19T06:28:36.386Z,67.67
2023-02-19T06:31:02.795Z,68.27
2023-02-19T06:33:29.252Z,67.83
2023-02-19T06:35:55.634Z,67.76
2023-02-19T06:38:22.009Z,66.93
2023-02-19T06:40:48.432Z,66.56
2023-02-19T06:43:14.778Z,66.92
2023-02-19T06:45:41.146Z,66.67
2023-02-19T06:48:07.526Z,66.77
2023-02-19T06:50:33.873Z,66.62
2023-02-19T06:53:00.261Z,66.83
2023-02-19T06:55:26.636Z,66.28
2023-02-19T06:57:53.039Z,66.70
2023-02-19T07:00:19.426Z,66.47
2023-02-19T07:02:45.808Z,66.71
2023-02-19T07:05:12.190Z,66.75
2023-02-19T07:07:38.561Z,65.53
2023-02-19T07:10:04.929Z,66.20
2023-02-19T07:12:31.281Z,65.60
2023-02-19T07:14:57.739Z,66.17
2023-02-19T07:17:24.101Z,66.27
2023-02-19T07:19:50.464Z,66.07
2023-02-19T07:22:16.838Z,65.54
2023-02-19T07:24:43.213Z,65.63
2023-02-19T07:27:09.584Z,65.46
2023-02-19T07:29:35.947Z,65.23
2023-02-19T07:32:02.442Z,65.59
2023-02-19T07:34:28.813Z,66.17
2023-02-19T07:36:55.168Z,66.37
2023-02-19T07:39:21.567Z,66.79
2023-02-19T07:41:47.937Z,65.62
2023-02-19T07:44:14.333Z,66.73
2023-02-19T07:46:40.714Z,67.34
2023-02-19T07:49:07.084Z,67.75
2023-02-19T07:51:33.469Z,66.81
2023-02-19T07:53:59.820Z,66.53
2023-02-19T07:56:26.243Z,65.95
2023-02-19T07:58:52.650Z,65.55
2023-02-19T08:01:19.249Z,65.41
2023-02-19T08:03:45.673Z,64.38
2023-02-19T08:06:12.051Z,64.54
2023-02-19T08:08:38.430Z,64.36
2023-02-19T08:11:04.796Z,63.74
2023-02-19T08:13:31.174Z,63.08
2023-02-19T08:16:07.521Z,63.32
2023-02-19T08:18:41.082Z,62.61
2023-02-19T08:21:07.478Z,61.64
2023-02-19T08:23:33.883Z,61.56
2023-02-19T08:26:00.308Z,62.32
2023-02-19T08:28:26.687Z,62.62
2023-02-19T08:30:53.130Z,63.33
2023-02-19T08:33:19.521Z,63.85
2023-02-19T08:35:45.877Z,64.38
2023-02-19T08:38:12.320Z,64.72
2023-02-19T08:40:38.725Z,64.85
2023-02-19T08:43:05.092Z,64.78
2023-02-19T08:45:31.498Z,64.27
2023-02-19T08:47:57.891Z,64.92
2023-02-19T08:50:24.382Z,65.44
2023-02-19T08:52:50.763Z,64.75
2023-02-19T08:55:17.135Z,65.25
2023-02-19T08:57:43.701Z,65.66
2023-02-19T09:00:10.078Z,65.33
2023-02-19T09:02:36.460Z,64.41
2023-02-19T09:05:02.926Z,64.46
2023-02-19T09:07:29.363Z,63.37
2023-02-19T09:09:55.736Z,63.66
2023-02-19T09:12:22.119Z,62.75
2023-02-19T09:14:48.515Z,63.15
2023-02-19T09:17:14.912Z,62.81
2023-02-19T09:19:41.303Z,62.96
2023-02-19T09:22:07.670Z,62.34
2023-02-19T09:24:34.023Z,62.27
2023-02-19T09:27:00.375Z,61.50
2023-02-19T09:29:26.776Z,60.96
2023-02-19T09:31:53.204Z,60.44
2023-02-19T09:34:19.574Z,58.94
2023-02-19T09:36:45.941Z,57.45
2023-02-19T09:39:12.341Z,56.39
2023-02-19T09:41:38.730Z,55.86
2023-02-19T09:44:05.094Z,52.65
2023-02-19T09:46:31.686Z,53.22
2023-02-19T09:48:58.157Z,52.45
2023-02-19T09:51:24.501Z,52.94
2023-02-19T09:53:50.944Z,52.60
2023-02-19T09:56:17.299Z,52.50
2023-02-19T09:58:43.667Z,52.62
2023-02-19T10:01:10.457Z,52.77
2023-02-19T10:03:37.073Z,53.17
2023-02-19T10:06:03.425Z,52.77
2023-02-19T10:08:29.802Z,52.97
2023-02-19T10:10:56.164Z,52.20
2023-02-19T10:13:22.592Z,51.60
2023-02-19T10:15:49.010Z,51.70
2023-02-19T10:18:15.422Z,51.49
2023-02-19T10:20:41.786Z,51.70
2023-02-19T10:23:08.163Z,51.42
2023-02-19T10:25:36.385Z,52.66
2023-02-19T10:28:02.739Z,52.97
2023-02-19T10:30:29.138Z,53.14
2023-02-19T10:32:55.584Z,54.12
2023-02-19T10:35:21.945Z,53.96
2023-02-19T10:37:48.322Z,53.44
2023-02-19T10:40:14.723Z,55.28
2023-02-19T10:42:41.125Z,54.25
2023-02-19T10:45:07.495Z,53.51
2023-02-19T10:47:33.866Z,53.05
2023-02-19T10:50:01.504Z,51.93
2023-02-19T10:52:28.897Z,50.62
2023-02-19T10:54:55.244Z,54.50
2023-02-19T10:57:21.603Z,52.88
2023-02-19T10:59:47.977Z,53.15
2023-02-19T11:02:14.372Z,53.02
2023-02-19T11:04:40.804Z,52.93
2023-02-19T11:07:07.173Z,52.53
2023-02-19T11:09:33.549Z,50.71
2023-02-19T11:11:59.930Z,52.31
2023-02-19T11:14:26.388Z,53.63
2023-02-19T11:16:52.731Z,51.75
2023-02-19T11:19:19.093Z,52.94
2023-02-19T11:21:45.445Z,53.12
2023-02-19T11:24:11.821Z,53.22
2023-02-19T11:26:38.206Z,52.14
2023-02-19T11:29:04.605Z,50.42
2023-02-19T11:31:31.060Z,51.05
2023-02-19T11:33:57.507Z,50.27
2023-02-19T11:36:23.932Z,49.34
2023-02-19T11:38:50.320Z,48.38
2023-02-19T11:41:16.709Z,48.08
2023-02-19T11:43:43.083Z,48.11
2023-02-19T11:46:09.482Z,49.07
2023-02-19T11:48:35.847Z,48.18
2023-02-19T11:51:02.244Z,46.84
2023-02-19T11:53:28.718Z,46.77
2023-02-19T11:55:55.123Z,47.39
2023-02-19T11:58:21.517Z,48.75
2023-02-19T12:00:49.250Z,47.70
2023-02-19T12:03:15.631Z,46.30
2023-02-19T12:05:42.002Z,45.82
2023-02-19T12:08:08.448Z,46.17
2023-02-19T12:10:34.798Z,45.54
2023-02-19T12:13:01.163Z,45.65
2023-02-19T12:15:27.568Z,47.20
2023-02-19T12:17:53.920Z,47.81
2023-02-19T12:20:20.307Z,47.17
2023-02-19T12:22:46.673Z,45.86
2023-02-19T12:28:03.355Z,45.06
2023-02-19T12:30:29.817Z,43.75
2023-02-19T12:32:56.273Z,45.54
2023-02-19T12:35:22.637Z,45.55
2023-02-19T12:37:49.007Z,45.87
2023-02-19T12:40:15.361Z,45.47
2023-02-19T12:42:41.762Z,45.63
2023-02-19T12:45:08.430Z,46.20
2023-02-19T12:47:34.793Z,44.96
2023-02-19T12:50:01.190Z,44.25
2023-02-19T12:52:27.552Z,43.16
2023-02-19T12:54:55.825Z,43.43
2023-02-19T12:57:22.444Z,44.90
2023-02-19T12:59:48.832Z,44.34
2023-02-19T13:02:15.263Z,43.98
2023-02-19T13:04:41.675Z,45.13
2023-02-19T13:07:08.058Z,43.98
2023-02-19T13:09:34.473Z,43.11
2023-02-19T13:12:00.876Z,44.50
2023-02-19T13:14:27.241Z,44.00
2023-02-19T13:16:53.722Z,43.03
2023-02-19T13:19:20.165Z,42.30
2023-02-19T13:21:46.533Z,42.21
2023-02-19T13:24:12.958Z,43.98
2023-02-19T13:26:39.332Z,42.91
2023-02-19T13:29:05.698Z,44.19
2023-02-19T13:31:32.176Z,43.40
2023-02-19T13:33:58.616Z,42.77
2023-02-19T13:36:26.599Z,42.12
2023-02-19T13:38:53.024Z,41.81
2023-02-19T13:41:19.427Z,41.66
2023-02-19T13:43:45.789Z,41.07
2023-02-19T13:46:12.255Z,40.81
2023-02-19T13:48:38.692Z,39.58
2023-02-19T13:51:05.062Z,39.15
2023-02-19T13:53:31.446Z,39.20
2023-02-19T13:55:57.818Z,39.34
2023-02-19T13:58:24.185Z,40.31
2023-02-19T14:00:50.563Z,39.76
2023-02-19T14:03:16.936Z,41.58
2023-02-19T14:05:43.313Z,40.30
2023-02-19T14:08:09.694Z,39.37
2023-02-19T14:10:36.057Z,38.46
2023-02-19T14:13:02.423Z,38.60
2023-02-19T14:15:28.834Z,39.01
2023-02-19T14:17:55.225Z,39.32
2023-02-19T14:20:21.598Z,40.39
2023-02-19T14:22:47.941Z,40.13
2023-02-19T14:25:14.310Z,40.99
2023-02-19T14:27:40.685Z,40.55
2023-02-19T14:30:07.096Z,39.71
2023-02-19T14:32:33.587Z,39.10
2023-02-19T14:34:59.947Z,39.21
2023-02-19T14:37:26.311Z,42.57
2023-02-19T14:39:52.679Z,44.39
2023-02-19T14:42:19.072Z,46.88
2023-02-19T14:44:45.476Z,47.94
2023-02-19T14:47:11.830Z,48.03
2023-02-19T14:49:38.195Z,46.19
2023-02-19T14:52:04.571Z,45.61
2023-02-19T14:54:30.939Z,43.93
2023-02-19T14:56:57.462Z,43.48
2023-02-19T14:59:23.822Z,41.70
2023-02-19T15:01:50.230Z,38.49
2023-02-19T15:04:16.624Z,37.19
2023-02-19T15:06:42.974Z,35.68
2023-02-19T15:09:09.366Z,35.49
2023-02-19T15:11:35.747Z,34.89
2023-02-19T15:14:02.130Z,33.37
2023-02-19T15:16:28.747Z,31.95
2023-02-19T15:18:55.149Z,32.41
2023-02-19T15:21:21.510Z,31.61
2023-02-19T15:23:47.901Z,30.97
2023-02-19T15:26:14.287Z,29.56
2023-02-19T15:28:40.672Z,30.74
2023-02-19T15:31:07.037Z,30.01
2023-02-19T15:33:33.457Z,30.01
2023-02-19T15:35:59.841Z,30.91
2023-02-19T15:38:26.246Z,29.78
2023-02-19T15:40:52.653Z,28.42
2023-02-19T15:43:19.023Z,27.22
2023-02-19T15:45:45.390Z,26.57
2023-02-19T15:48:11.795Z,25.22
2023-02-19T15:50:38.168Z,25.01
2023-02-19T15:53:04.537Z,24.39
2023-02-19T15:55:30.926Z,24.37
2023-02-19T15:57:57.280Z,24.38
2023-02-19T16:00:23.664Z,24.50
2023-02-19T16:02:50.096Z,24.91
2023-02-19T16:05:16.478Z,25.32
2023-02-19T16:07:42.842Z,25.59
2023-02-19T16:10:09.238Z,26.17
2023-02-19T16:12:35.618Z,25.99
2023-02-19T16:15:01.959Z,26.14
2023-02-19T16:17:28.342Z,26.66
2023-02-19T16:19:54.723Z,27.79
2023-02-19T16:22:21.107Z,27.83
2023-02-19T16:24:47.467Z,28.83
2023-02-19T16:27:13.847Z,29.22
2023-02-19T16:29:40.232Z,29.33
2023-02-19T16:32:06.678Z,29.30
2023-02-19T16:34:33.275Z,29.60
2023-02-19T16:36:59.723Z,30.09
2023-02-19T16:39:26.081Z,30.45
2023-02-19T16:41:52.448Z,31.58
2023-02-19T16:44:18.890Z,32.30
2023-02-19T16:46:45.240Z,33.19
2023-02-19T16:49:13.104Z,34.90
2023-02-19T16:51:39.493Z,39.03
2023-02-19T16:54:05.866Z,41.29
2023-02-19T16:56:32.264Z,42.95
2023-02-19T16:58:58.622Z,44.96
2023-02-19T17:01:25.012Z,46.72
2023-02-19T17:03:51.447Z,48.31
2023-02-19T17:06:17.836Z,49.56
2023-02-19T17:08:44.191Z,50.47
2023-02-19T17:11:10.903Z,50.55
2023-02-19T17:13:37.440Z,50.80
2023-02-19T17:16:03.884Z,51.24
2023-02-19T17:18:30.319Z,51.38
2023-02-19T17:20:56.698Z,51.86
2023-02-19T17:23:24.488Z,52.28
2023-02-19T17:25:50.969Z,52.64
2023-02-19T17:28:17.361Z,52.68
2023-02-19T17:30:43.722Z,52.89
2023-02-19T17:33:10.112Z,52.87
2023-02-19T17:35:36.489Z,53.29
2023-02-19T17:38:02.867Z,53.12
2023-02-19T17:40:33.060Z,53.05
2023-02-19T17:43:00.026Z,53.44
2023-02-19T17:46:41.253Z,52.25
2023-02-19T17:49:07.610Z,52.96
2023-02-19T17:51:33.968Z,52.80
2023-02-19T17:54:00.369Z,53.05
2023-02-19T17:56:26.757Z,53.30
2023-02-19T17:58:53.160Z,53.93
2023-02-19T18:01:19.554Z,54.39
2023-02-19T18:03:46.007Z,53.91
2023-02-19T18:06:12.402Z,54.09
2023-02-19T18:08:38.773Z,54.48
2023-02-19T18:11:05.135Z,55.01
2023-02-19T18:13:31.509Z,55.71
2023-02-19T18:15:57.903Z,56.02
2023-02-19T18:18:24.283Z,56.05
2023-02-19T18:20:50.630Z,55.83
2023-02-19T18:23:17.025Z,56.36
2023-02-19T18:25:43.472Z,56.50
2023-02-19T18:28:09.861Z,56.25
2023-02-19T18:30:36.305Z,56.63
2023-02-19T18:33:02.741Z,56.40
2023-02-19T18:35:31.790Z,56.50
2023-02-19T18:37:59.085Z,56.55
2023-02-19T18:40:25.466Z,56.85
2023-02-19T18:42:51.877Z,56.42
2023-02-19T18:45:18.261Z,56.89
2023-02-19T18:47:44.646Z,56.76
2023-02-19T18:50:11.008Z,56.42
2023-02-19T18:52:37.413Z,56.49
2023-02-19T18:55:03.770Z,56.48
2023-02-19T18:57:30.126Z,56.41
2023-02-19T18:59:56.489Z,56.59
2023-02-19T19:02:22.845Z,56.58
2023-02-19T19:04:49.226Z,56.23
2023-02-19T19:07:15.588Z,56.05
2023-02-19T19:09:41.998Z,56.12
2023-02-19T19:12:08.401Z,55.85
2023-02-19T19:14:34.777Z,55.00
2023-02-19T19:17:01.173Z,55.73
2023-02-19T19:19:27.536Z,55.59
2023-02-19T19:21:53.949Z,55.74
2023-02-19T19:24:20.315Z,55.50
2023-02-19T19:26:46.680Z,55.58
2023-02-19T19:29:13.453Z,55.51
2023-02-19T19:31:39.888Z,55.17
2023-02-19T19:34:06.349Z,55.24
2023-02-19T19:36:32.729Z,54.90
2023-02-19T19:38:59.181Z,55.33
2023-02-19T19:41:25.625Z,55.60
2023-02-19T19:43:51.993Z,55.97
2023-02-19T19:46:18.402Z,56.19
2023-02-19T19:48:44.787Z,56.12
2023-02-19T19:51:11.456Z,56.13
2023-02-19T19:53:39.170Z,56.26
2023-02-19T19:56:05.558Z,56.52
2023-02-19T19:58:31.949Z,56.31
2023-02-19T20:00:58.344Z,56.53
2023-02-19T20:03:24.725Z,56.71
2023-02-19T20:05:51.112Z,56.82
2023-02-19T20:08:17.544Z,56.71
2023-02-19T20:10:45.402Z,56.74
2023-02-19T20:13:11.892Z,56.88
2023-02-19T20:15:40.085Z,57.01
2023-02-19T20:18:06.472Z,56.47
2023-02-19T20:20:32.837Z,56.55
2023-02-19T20:22:59.208Z,56.77
2023-02-19T20:25:25.660Z,56.69
2023-02-19T20:27:52.044Z,56.60
2023-02-19T20:30:18.451Z,56.85
2023-02-19T20:32:44.853Z,56.10
2023-02-19T20:35:11.220Z,56.21
2023-02-19T20:37:37.655Z,55.89
2023-02-19T20:40:04.019Z,55.55
2023-02-19T20:42:30.370Z,55.31
2023-02-19T20:44:56.792Z,54.95
2023-02-19T20:47:23.163Z,54.87
2023-02-19T20:49:49.560Z,54.43
2023-02-19T20:52:16.007Z,54.47
2023-02-19T20:54:42.400Z,54.27
2023-02-19T20:57:08.781Z,53.78
2023-02-19T20:59:35.222Z,54.07
2023-02-19T21:02:01.715Z,53.81
2023-02-19T21:04:28.170Z,54.28
2023-02-19T21:06:54.549Z,54.13
2023-02-19T21:09:20.916Z,54.07
2023-02-19T21:11:47.315Z,54.13
2023-02-19T21:14:13.669Z,55.11
2023-02-19T21:16:40.065Z,55.37
2023-02-19T21:19:06.415Z,55.07
2023-02-19T21:21:32.939Z,55.01
2023-02-19T21:23:59.331Z,54.88
2023-02-19T21:26:25.722Z,54.79
2023-02-19T21:28:52.152Z,53.76
2023-02-19T21:31:18.608Z,53.56
2023-02-19T21:33:45.028Z,53.61
2023-02-19T21:36:11.637Z,54.58
2023-02-19T21:38:38.293Z,54.08
2023-02-19T21:41:04.662Z,54.51
2023-02-19T21:43:31.052Z,54.21
2023-02-19T21:45:57.445Z,55.02
2023-02-19T21:48:23.905Z,55.15
2023-02-19T21:50:50.335Z,55.31
2023-02-19T21:53:16.693Z,55.31
2023-02-19T21:55:57.454Z,55.85
2023-02-19T21:58:24.449Z,55.78
2023-02-19T22:00:50.835Z,56.24
2023-02-19T22:03:17.213Z,56.28
2023-02-19T22:05:43.593Z,56.16
2023-02-19T22:08:09.957Z,55.67
2023-02-19T22:10:36.337Z,55.32
2023-02-19T22:13:02.721Z,55.23
2023-02-19T22:15:29.093Z,55.53
2023-02-19T22:17:55.506Z,55.59
2023-02-19T22:20:21.879Z,55.65
2023-02-19T22:22:48.264Z,55.31
2023-02-19T22:25:14.650Z,55.08
2023-02-19T22:27:41.041Z,55.42
2023-02-19T22:30:08.710Z,54.73
2023-02-19T22:32:35.228Z,54.97
2023-02-19T22:35:01.688Z,54.69
2023-02-19T22:37:28.090Z,54.53
2023-02-19T22:39:54.489Z,54.09
2023-02-19T22:42:20.862Z,54.32
2023-02-19T22:44:47.389Z,53.75
2023-02-19T22:47:13.780Z,53.84
2023-02-19T22:49:40.134Z,53.30
2023-02-19T22:52:06.629Z,53.84
2023-02-19T22:54:32.984Z,54.48
2023-02-19T22:56:59.358Z,54.70
2023-02-19T22:59:25.722Z,54.91
2023-02-19T23:01:52.119Z,54.43
2023-02-19T23:04:18.524Z,54.80
2023-02-19T23:06:45.531Z,54.55
2023-02-19T23:09:11.946Z,53.68
2023-02-19T23:11:38.360Z,53.80
2023-02-19T23:14:04.745Z,54.36
2023-02-19T23:16:31.120Z,53.83
2023-02-19T23:18:57.524Z,53.70
2023-02-19T23:21:23.909Z,54.26
2023-02-19T23:23:50.376Z,54.44
2023-02-19T23:26:16.783Z,55.29
2023-02-19T23:28:43.226Z,55.24
2023-02-19T23:31:09.782Z,54.71
2023-02-19T23:33:36.245Z,54.57
2023-02-19T23:36:02.620Z,53.97
2023-02-19T23:38:29.015Z,54.28
2023-02-19T23:40:55.392Z,53.51
2023-02-19T23:43:21.746Z,53.57
2023-02-19T23:45:48.275Z,53.46
2023-02-19T23:48:14.659Z,54.00
2023-02-19T23:50:41.113Z,54.09
2023-02-19T23:53:07.510Z,54.10
2023-02-19T23:55:33.877Z,55.15
2023-02-19T23:58:00.233Z,56.07
